Terminal Aerodrome Forecast
Issued by NWS Wilmington, NC

Home | Current Version | Previous Version | Text Only | Print | Product List | Glossary On
Versions: 1 2 3 4 5 6 7 8 9 10 11 12 13 14 15 16 17 18 19
000
FTUS42 KILM 291730
TAFILM
TAF
KILM 291730Z 2918/3018 04006KT P6SM SCT040 BKN250
     FM291900 08012KT P6SM SCT050 BKN250
     FM300100 07006KT P6SM BKN250
     FM301200 01004KT P6SM BKN050=

USA.gov is the U.S. government's official web portal to all federal, state and local government web resources and services.